Time;durP1;ratioP1;P1;durP2;ratioP2;P2;SDS_P1;SDS_P2;PMS_P1;PMS_P2;Temp;Humidity;BMP_temperature;BMP_pressure;BME280_temperature;BME280_humidity;BME280_pressure;Samples;Min_cycle;Max_cycle;Signal;HPM_P1;HPM_P2
2022/09/12 00:01:56;;;;;;;57.90;23.52;;;13.40;99.90;;;;;;5084479;28;20405;-59
2022/09/12 00:04:21;;;;;;;45.15;22.17;;;13.40;99.90;;;;;;5088028;28;20032;-61
2022/09/12 00:06:47;;;;;;;53.70;22.48;;;13.50;99.90;;;;;;5088630;28;20100;-55
2022/09/12 00:09:13;;;;;;;50.60;22.65;;;13.50;99.90;;;;;;5081179;28;20028;-58
2022/09/12 00:11:41;;;;;;;52.95;22.35;;;13.40;99.90;;;;;;5085504;28;20020;-55
2022/09/12 00:14:08;;;;;;;47.60;22.13;;;13.50;99.90;;;;;;5083090;28;20024;-56
2022/09/12 00:16:35;;;;;;;42.17;20.05;;;13.50;99.90;;;;;;5088754;28;20070;-57
2022/09/12 00:19:02;;;;;;;46.88;19.75;;;13.50;99.90;;;;;;5083116;28;20043;-57
2022/09/12 00:21:28;;;;;;;47.60;19.98;;;13.50;99.90;;;;;;5087338;28;20039;-57
2022/09/12 00:23:54;;;;;;;40.53;19.77;;;13.60;99.90;;;;;;5090478;28;20035;-55
2022/09/12 00:26:20;;;;;;;45.08;21.20;;;13.60;99.90;;;;;;5089100;28;20020;-57
2022/09/12 00:28:46;;;;;;;43.03;19.73;;;13.50;99.90;;;;;;5090363;28;20020;-58
2022/09/12 00:31:15;;;;;;;42.80;20.15;;;13.40;99.90;;;;;;5086912;28;20032;-57
2022/09/12 00:33:41;;;;;;;60.67;23.58;;;13.40;99.90;;;;;;5081451;28;20582;-56
2022/09/12 00:36:13;;;;;;;56.67;22.55;;;13.40;99.90;;;;;;5086098;28;20024;-57
2022/09/12 00:38:40;;;;;;;57.20;19.58;;;13.40;99.90;;;;;;5086382;28;20051;-57
2022/09/12 00:41:11;;;;;;;57.95;19.58;;;13.30;99.90;;;;;;5089521;28;20032;-58
2022/09/12 00:43:43;;;;;;;48.67;20.65;;;13.20;99.90;;;;;;5090790;28;20465;-57
2022/09/12 00:46:17;;;;;;;48.72;20.50;;;13.20;99.90;;;;;;5083126;28;20058;-57
2022/09/12 00:48:48;;;;;;;46.75;21.25;;;13.20;99.90;;;;;;5081437;28;20036;-56
2022/09/12 00:51:15;;;;;;;51.30;20.70;;;13.10;99.90;;;;;;5086600;28;20443;-57
2022/09/12 00:53:43;;;;;;;45.10;21.05;;;13.10;99.90;;;;;;5087438;28;20032;-54
2022/09/12 00:56:10;;;;;;;50.92;21.88;;;13.10;99.90;;;;;;5086843;28;20792;-55
2022/09/12 00:58:41;;;;;;;52.28;22.00;;;13.10;99.90;;;;;;5086129;28;20035;-57
2022/09/12 01:01:07;;;;;;;57.45;22.70;;;13.10;99.90;;;;;;5083600;28;20059;-55
2022/09/12 01:03:32;;;;;;;61.05;21.88;;;13.10;99.90;;;;;;5086355;28;20070;-57
2022/09/12 01:06:26;;;;;;;57.13;21.50;;;13.10;99.90;;;;;;5085457;28;20027;-55
2022/09/12 01:08:53;;;;;;;59.50;23.42;;;13.00;99.90;;;;;;5085108;28;20024;-57
2022/09/12 01:11:21;;;;;;;52.25;22.58;;;13.00;99.90;;;;;;5085212;28;20443;-55
2022/09/12 01:13:48;;;;;;;53.40;21.08;;;13.00;99.90;;;;;;5085218;28;20026;-56
2022/09/12 01:16:14;;;;;;;56.58;22.58;;;13.00;99.90;;;;;;5085953;28;20506;-53
2022/09/12 01:19:15;;;;;;;53.53;23.15;;;13.00;99.90;;;;;;5089331;28;20039;-54
2022/09/12 01:21:55;;;;;;;51.92;21.63;;;13.00;99.90;;;;;;5043562;28;20071;-61
2022/09/12 01:24:33;;;;;;;50.13;21.27;;;13.00;99.90;;;;;;5077646;28;20402;-59
2022/09/12 01:27:15;;;;;;;51.65;21.90;;;12.90;99.90;;;;;;5080005;28;20073;-59
2022/09/12 01:29:56;;;;;;;54.22;20.40;;;13.00;99.90;;;;;;5083615;28;20024;-60
2022/09/12 01:32:42;;;;;;;56.78;22.27;;;13.00;99.90;;;;;;5085366;28;20035;-59
2022/09/12 01:35:25;;;;;;;47.22;21.23;;;13.00;99.90;;;;;;5088207;28;20036;-59
2022/09/12 01:38:08;;;;;;;48.17;19.83;;;13.00;99.90;;;;;;5082726;28;20727;-60
2022/09/12 01:40:45;;;;;;;42.07;19.50;;;13.10;99.90;;;;;;5083504;28;20024;-57
2022/09/12 01:43:30;;;;;;;51.55;21.75;;;13.00;99.90;;;;;;5088062;28;20039;-60
2022/09/12 01:46:14;;;;;;;51.20;21.23;;;13.10;99.90;;;;;;5081850;28;20032;-59
2022/09/12 01:48:57;;;;;;;52.58;21.58;;;13.10;99.90;;;;;;5082532;28;20490;-59
2022/09/12 01:51:41;;;;;;;55.10;20.38;;;13.00;99.90;;;;;;5080281;28;20129;-61
2022/09/12 01:54:25;;;;;;;51.28;22.75;;;12.90;99.90;;;;;;5087234;28;20020;-60
2022/09/12 01:56:55;;;;;;;48.53;19.73;;;12.90;99.90;;;;;;5081870;28;20047;-61
2022/09/12 01:59:35;;;;;;;47.50;20.05;;;12.90;99.90;;;;;;5083936;28;20020;-60
2022/09/12 02:02:36;;;;;;;48.92;22.05;;;12.90;99.90;;;;;;5084968;28;20051;-60
2022/09/12 02:05:16;;;;;;;50.38;20.75;;;12.90;99.90;;;;;;5052557;28;20043;-58
2022/09/12 02:08:01;;;;;;;42.10;19.70;;;12.90;99.90;;;;;;5078570;28;20593;-59
2022/09/12 02:10:33;;;;;;;51.50;20.77;;;12.90;99.90;;;;;;5081311;28;20028;-59
2022/09/12 02:13:16;;;;;;;53.58;19.65;;;12.80;99.90;;;;;;5085144;28;20402;-60
2022/09/12 02:15:54;;;;;;;48.38;19.55;;;12.90;99.90;;;;;;5079001;28;20028;-60
2022/09/12 02:18:20;;;;;;;49.72;20.17;;;12.90;99.90;;;;;;5088315;28;20054;-59
2022/09/12 02:20:47;;;;;;;52.80;20.15;;;12.80;99.90;;;;;;5084395;28;20029;-57
2022/09/12 02:23:19;;;;;;;50.75;20.45;;;12.80;99.90;;;;;;5088559;28;20031;-57
2022/09/12 02:25:49;;;;;;;52.83;19.92;;;12.80;99.90;;;;;;5083868;28;20024;-58
2022/09/12 02:28:35;;;;;;;43.85;19.25;;;12.80;99.90;;;;;;5084123;28;21921;-59
2022/09/12 02:31:10;;;;;;;55.88;20.33;;;12.70;99.90;;;;;;5084115;28;20046;-58
2022/09/12 02:33:45;;;;;;;48.60;19.27;;;12.70;99.90;;;;;;5082330;28;20249;-58
2022/09/12 02:36:42;;;;;;;57.80;20.33;;;12.60;99.90;;;;;;5085862;28;20062;-57
2022/09/12 02:39:08;;;;;;;55.97;20.52;;;12.50;99.90;;;;;;5088244;28;20043;-58
2022/09/12 02:41:34;;;;;;;55.67;21.52;;;12.50;99.90;;;;;;5081113;28;20020;-60
2022/09/12 02:44:00;;;;;;;54.42;20.70;;;12.50;99.90;;;;;;5089567;28;20515;-59
2022/09/12 02:46:41;;;;;;;54.03;21.92;;;12.50;99.90;;;;;;5085760;28;20074;-59
2022/09/12 02:49:07;;;;;;;58.22;21.60;;;12.40;99.90;;;;;;5088162;28;20432;-60
2022/09/12 02:51:32;;;;;;;46.40;19.80;;;12.50;99.90;;;;;;5085340;28;20033;-59
2022/09/12 02:53:58;;;;;;;52.10;20.27;;;12.50;99.90;;;;;;5084907;28;20535;-56
2022/09/12 02:56:27;;;;;;;55.13;21.88;;;12.40;99.90;;;;;;5090006;28;20508;-58
2022/09/12 02:59:00;;;;;;;50.22;20.70;;;12.40;99.90;;;;;;5087008;28;20077;-61
2022/09/12 03:02:08;;;;;;;51.70;21.27;;;12.40;99.90;;;;;;5083301;28;20035;-61
2022/09/12 03:04:39;;;;;;;50.85;20.73;;;12.40;99.90;;;;;;5103766;22;20578;-64
2022/09/12 03:07:30;;;;;;;51.25;21.23;;;12.40;99.90;;;;;;5083762;28;20069;-64
2022/09/12 03:10:21;;;;;;;49.67;19.83;;;12.40;99.90;;;;;;5085739;28;20215;-63
2022/09/12 03:13:05;;;;;;;47.65;20.80;;;12.40;99.90;;;;;;5085509;28;20115;-64
2022/09/12 03:16:04;;;;;;;57.67;22.13;;;12.40;99.90;;;;;;5088622;28;20030;-64
2022/09/12 03:18:39;;;;;;;53.30;20.17;;;12.40;99.90;;;;;;5081693;28;20023;-64
2022/09/12 03:21:22;;;;;;;;;;;12.40;99.90;;;;;;5090302;28;20051;-64
2022/09/12 03:24:12;;;;;;;47.65;18.70;;;12.50;99.90;;;;;;5097362;28;19927;-63
2022/09/12 03:26:44;;;;;;;49.88;20.17;;;12.50;99.90;;;;;;5087951;28;20401;-64
2022/09/12 03:29:12;;;;;;;52.72;19.67;;;12.50;99.90;;;;;;5088758;28;20070;-64
2022/09/12 03:31:51;;;;;;;47.38;20.48;;;12.50;99.90;;;;;;5070810;28;20021;-64
2022/09/12 03:34:18;;;;;;;45.25;20.70;;;12.50;99.90;;;;;;5088841;28;20084;-63
2022/09/12 03:36:43;;;;;;;49.35;19.23;;;12.60;99.90;;;;;;5090474;28;20016;-64
2022/09/12 03:39:09;;;;;;;53.33;19.85;;;12.60;99.90;;;;;;5090097;28;20020;-64
2022/09/12 03:41:34;;;;;;;48.50;20.70;;;12.60;99.90;;;;;;5088950;28;20039;-64
2022/09/12 03:44:00;;;;;;;48.28;19.95;;;12.60;99.90;;;;;;5101037;28;20098;-64
2022/09/12 03:46:26;;;;;;;48.63;20.23;;;12.50;99.90;;;;;;5091747;28;20032;-61
2022/09/12 03:48:51;;;;;;;40.25;18.50;;;12.40;99.90;;;;;;5088610;28;20393;-64
2022/09/12 03:51:17;;;;;;;43.75;17.95;;;12.40;99.90;;;;;;5087649;28;20385;-63
2022/09/12 03:53:42;;;;;;;61.33;19.58;;;12.40;99.90;;;;;;5092539;28;20074;-64
2022/09/12 03:56:09;;;;;;;45.20;18.45;;;12.30;99.90;;;;;;5080059;28;20934;-63
2022/09/12 03:58:36;;;;;;;41.78;19.05;;;12.30;99.90;;;;;;5091759;28;20030;-64
2022/09/12 04:01:16;;;;;;;52.83;19.63;;;12.30;99.90;;;;;;5086552;28;20032;-64
2022/09/12 04:03:44;;;;;;;47.25;19.15;;;12.20;99.90;;;;;;5088579;28;20110;-64
2022/09/12 04:06:13;;;;;;;49.30;20.02;;;12.20;99.90;;;;;;5087880;28;20821;-64
2022/09/12 04:08:39;;;;;;;47.10;19.45;;;12.20;99.90;;;;;;5093530;28;20098;-64
2022/09/12 04:11:08;;;;;;;51.80;20.98;;;12.20;99.90;;;;;;5091500;28;20355;-63
2022/09/12 04:13:35;;;;;;;52.00;20.13;;;12.20;99.90;;;;;;5083355;28;20038;-64
2022/09/12 04:16:02;;;;;;;46.50;19.88;;;12.20;99.90;;;;;;5089148;28;20401;-63
2022/09/12 04:18:27;;;;;;;52.92;19.00;;;12.20;99.90;;;;;;5091577;28;20028;-63
2022/09/12 04:20:53;;;;;;;42.53;19.23;;;12.20;99.90;;;;;;5090758;28;20815;-64
2022/09/12 04:23:18;;;;;;;48.05;19.92;;;12.30;99.90;;;;;;5088142;28;20019;-63
2022/09/12 04:25:51;;;;;;;50.22;19.33;;;12.30;99.90;;;;;;5090088;28;20031;-64
2022/09/12 04:28:17;;;;;;;51.08;20.13;;;12.30;99.90;;;;;;5088497;28;20024;-64
2022/09/12 04:30:42;;;;;;;45.97;20.17;;;12.30;99.90;;;;;;5092196;28;20030;-64
2022/09/12 04:33:08;;;;;;;39.35;18.02;;;12.20;99.90;;;;;;5090140;28;20415;-63
2022/09/12 04:35:34;;;;;;;50.97;19.33;;;12.30;99.90;;;;;;5082925;28;20107;-64
2022/09/12 04:38:00;;;;;;;43.92;19.00;;;12.30;99.90;;;;;;5088892;28;20023;-64
2022/09/12 04:40:28;;;;;;;37.42;16.95;;;12.30;99.90;;;;;;5082169;28;20024;-64
2022/09/12 04:42:54;;;;;;;40.03;18.23;;;12.30;99.90;;;;;;5099015;28;20438;-63
2022/09/12 04:45:21;;;;;;;39.90;17.77;;;12.40;99.90;;;;;;5087509;28;20493;-64
2022/09/12 04:47:46;;;;;;;45.45;18.30;;;12.40;99.90;;;;;;5090094;28;20039;-63
2022/09/12 04:50:13;;;;;;;42.33;17.92;;;12.40;99.90;;;;;;5090937;28;20517;-63
2022/09/12 04:52:39;;;;;;;41.90;17.65;;;12.40;99.90;;;;;;5089801;28;20027;-64
2022/09/12 04:55:05;;;;;;;39.03;17.80;;;12.50;99.90;;;;;;5091233;28;20036;-64
2022/09/12 04:57:31;;;;;;;45.50;17.05;;;12.50;99.90;;;;;;5088580;28;20429;-64
2022/09/12 04:59:57;;;;;;;45.28;18.45;;;12.50;99.90;;;;;;5087049;28;20035;-63
2022/09/12 05:02:23;;;;;;;37.55;16.38;;;12.40;99.90;;;;;;5087008;28;20077;-64
2022/09/12 05:04:48;;;;;;;38.60;16.52;;;12.50;99.90;;;;;;5050916;28;1048396;-58
2022/09/12 05:07:14;;;;;;;29.48;14.98;;;12.40;99.90;;;;;;5086028;28;20044;-60
2022/09/12 05:09:40;;;;;;;39.13;17.33;;;12.50;99.90;;;;;;5086668;28;20131;-60
2022/09/12 05:12:06;;;;;;;37.47;17.08;;;12.50;99.90;;;;;;5094442;28;20048;-60
2022/09/12 05:14:32;;;;;;;34.45;16.63;;;12.60;99.90;;;;;;5089011;28;20044;-61
2022/09/12 05:17:00;;;;;;;33.75;16.20;;;12.60;99.90;;;;;;5087284;28;20081;-60
2022/09/12 05:19:26;;;;;;;37.47;16.83;;;12.60;99.90;;;;;;5090491;28;20054;-60
2022/09/12 05:21:52;;;;;;;35.88;16.50;;;12.60;99.90;;;;;;5084649;28;20024;-60
2022/09/12 05:24:17;;;;;;;33.53;15.57;;;12.70;99.90;;;;;;5087349;28;20029;-60
2022/09/12 05:26:43;;;;;;;30.83;15.65;;;12.70;99.90;;;;;;5100778;28;20107;-61
2022/09/12 05:29:08;;;;;;;34.45;15.00;;;12.70;99.90;;;;;;5089012;28;20478;-60
2022/09/12 05:31:34;;;;;;;34.55;15.15;;;12.70;99.90;;;;;;5091167;28;20039;-60
2022/09/12 05:34:00;;;;;;;37.60;16.33;;;12.80;99.90;;;;;;5098465;28;20036;-61
2022/09/12 05:36:28;;;;;;;40.95;16.58;;;12.80;99.90;;;;;;5094636;28;20032;-61
2022/09/12 05:38:53;;;;;;;41.05;17.77;;;12.90;99.90;;;;;;5090390;28;20107;-60
2022/09/12 05:41:23;;;;;;;34.85;15.52;;;12.90;99.90;;;;;;5089642;28;20537;-60
2022/09/12 05:43:55;;;;;;;37.83;16.48;;;12.90;99.90;;;;;;5087981;28;20120;-61
2022/09/12 05:46:24;;;;;;;34.47;16.70;;;13.00;99.90;;;;;;5089012;28;20157;-60
2022/09/12 05:48:50;;;;;;;34.97;16.45;;;13.00;99.90;;;;;;5090247;28;20384;-60
2022/09/12 05:51:25;;;;;;;38.90;17.05;;;13.10;99.90;;;;;;5096025;28;20442;-60
2022/09/12 05:53:56;;;;;;;39.05;16.40;;;13.10;99.90;;;;;;5103169;28;20055;-61
2022/09/12 05:56:24;;;;;;;32.50;16.20;;;13.20;99.90;;;;;;5108127;28;20027;-59
2022/09/12 05:58:58;;;;;;;34.88;15.80;;;13.20;99.90;;;;;;5108077;28;20401;-60
2022/09/12 06:01:25;;;;;;;38.42;16.45;;;13.30;99.90;;;;;;5083623;28;20119;-59
2022/09/12 06:03:53;;;;;;;38.03;17.08;;;13.30;99.90;;;;;;5101793;28;20119;-59
2022/09/12 06:06:21;;;;;;;32.20;15.32;;;13.40;99.90;;;;;;5088437;28;20024;-60
2022/09/12 06:08:49;;;;;;;37.72;16.88;;;13.40;99.90;;;;;;5089573;28;20020;-60
2022/09/12 06:11:18;;;;;;;30.55;14.57;;;13.40;99.90;;;;;;5106106;28;20106;-60
2022/09/12 06:13:44;;;;;;;35.97;16.95;;;13.50;99.90;;;;;;5095090;28;20028;-60
2022/09/12 06:16:16;;;;;;;32.58;16.98;;;13.60;99.90;;;;;;5091875;28;20034;-60
2022/09/12 06:18:50;;;;;;;34.10;15.90;;;13.60;99.90;;;;;;5092121;28;20043;-58
2022/09/12 06:21:16;;;;;;;;;;;13.60;99.90;;;;;;5087316;28;20024;-59
2022/09/12 06:23:43;;;;;;;33.92;15.23;;;13.70;99.90;;;;;;5112754;28;19912;-59
2022/09/12 06:26:09;;;;;;;33.30;16.80;;;13.70;99.90;;;;;;5107613;28;20477;-60
2022/09/12 06:28:37;;;;;;;32.25;15.45;;;13.70;99.90;;;;;;5112502;28;20063;-60
2022/09/12 06:31:05;;;;;;;30.38;15.73;;;13.80;99.90;;;;;;5099142;28;20103;-60
2022/09/12 06:33:34;;;;;;;39.08;16.63;;;13.80;99.90;;;;;;5098386;28;20024;-60
2022/09/12 06:36:15;;;;;;;33.78;15.88;;;13.90;99.90;;;;;;5103929;28;20043;-60
2022/09/12 06:38:40;;;;;;;32.60;14.85;;;14.00;99.90;;;;;;5087653;28;20533;-60
2022/09/12 06:41:09;;;;;;;35.65;14.75;;;14.00;99.90;;;;;;5086767;28;20083;-59
2022/09/12 06:43:35;;;;;;;26.77;14.82;;;14.10;99.90;;;;;;5086998;28;20032;-59
2022/09/12 06:46:01;;;;;;;34.88;15.05;;;14.20;99.90;;;;;;5091356;28;20699;-60
2022/09/12 06:48:28;;;;;;;33.40;15.05;;;14.30;99.90;;;;;;5091904;28;20028;-59
2022/09/12 06:51:02;;;;;;;28.20;13.90;;;14.30;99.90;;;;;;5112227;28;20500;-60
2022/09/12 06:53:29;;;;;;;28.55;14.50;;;14.40;99.90;;;;;;5112919;28;20038;-60
2022/09/12 06:56:06;;;;;;;26.85;13.35;;;14.40;99.90;;;;;;5111924;28;20038;-60
2022/09/12 06:58:33;;;;;;;31.27;15.30;;;14.50;99.90;;;;;;5112946;28;20032;-60
2022/09/12 07:01:03;;;;;;;31.70;15.20;;;14.60;99.90;;;;;;5086677;28;20111;-59
2022/09/12 07:03:29;;;;;;;26.20;13.48;;;14.70;99.90;;;;;;5092343;28;20054;-60
2022/09/12 07:05:55;;;;;;;31.23;13.30;;;14.70;99.90;;;;;;5084765;28;20509;-60
2022/09/12 07:08:20;;;;;;;34.13;13.70;;;14.80;99.90;;;;;;5093072;28;20048;-59
2022/09/12 07:10:46;;;;;;;26.55;14.00;;;14.80;99.90;;;;;;5092925;28;20118;-60
2022/09/12 07:13:12;;;;;;;27.85;13.25;;;14.90;99.90;;;;;;5093148;28;20031;-60
2022/09/12 07:15:38;;;;;;;29.33;13.38;;;15.00;99.90;;;;;;5091353;28;20486;-58
2022/09/12 07:18:03;;;;;;;23.08;12.68;;;15.10;99.90;;;;;;5095766;28;20030;-59
2022/09/12 07:20:31;;;;;;;24.95;12.43;;;15.10;99.90;;;;;;5111081;28;20102;-60
2022/09/12 07:22:58;;;;;;;21.98;12.20;;;15.10;99.90;;;;;;5112171;28;20486;-60
2022/09/12 07:25:23;;;;;;;26.65;12.27;;;15.20;99.90;;;;;;5109849;28;20032;-61
2022/09/12 07:27:49;;;;;;;36.28;13.48;;;15.20;99.90;;;;;;5111820;28;20390;-61
2022/09/12 07:30:15;;;;;;;24.65;12.10;;;15.30;99.90;;;;;;5110968;28;20427;-60
2022/09/12 07:32:40;;;;;;;24.25;12.05;;;15.40;99.90;;;;;;5091740;28;20494;-59
2022/09/12 07:35:06;;;;;;;28.85;13.57;;;15.40;99.90;;;;;;5092131;28;20094;-60
2022/09/12 07:37:32;;;;;;;21.63;11.95;;;15.50;99.90;;;;;;5091577;28;20040;-61
2022/09/12 07:39:58;;;;;;;24.08;12.43;;;15.60;99.90;;;;;;5092424;28;20099;-60
2022/09/12 07:42:24;;;;;;;24.15;13.05;;;15.60;99.90;;;;;;5092374;28;20031;-61
2022/09/12 07:44:51;;;;;;;25.77;11.63;;;15.70;99.90;;;;;;5091349;28;20028;-60
2022/09/12 07:47:17;;;;;;;27.35;13.45;;;15.80;99.90;;;;;;5104526;28;20110;-59
2022/09/12 07:49:43;;;;;;;27.45;14.50;;;15.80;99.90;;;;;;5111510;28;20102;-61
2022/09/12 07:52:08;;;;;;;22.58;12.63;;;15.90;99.90;;;;;;5111721;28;20485;-61
2022/09/12 07:54:34;;;;;;;26.27;12.82;;;15.90;99.90;;;;;;5111329;28;20031;-59
2022/09/12 07:56:59;;;;;;;29.70;13.13;;;16.00;99.90;;;;;;5110672;28;20389;-59
2022/09/12 07:59:25;;;;;;;25.35;13.43;;;16.10;99.90;;;;;;5111533;28;20054;-60
2022/09/12 08:01:50;;;;;;;29.70;13.27;;;16.20;99.90;;;;;;5108358;28;20027;-58
2022/09/12 08:04:16;;;;;;;27.52;13.27;;;16.20;99.90;;;;;;5111038;28;20038;-59
2022/09/12 08:06:41;;;;;;;26.95;13.45;;;16.30;99.90;;;;;;5107073;28;20031;-59
2022/09/12 08:09:07;;;;;;;25.40;13.05;;;16.40;99.90;;;;;;5111949;28;20027;-61
2022/09/12 08:11:32;;;;;;;32.85;12.82;;;16.50;99.90;;;;;;5110834;28;20415;-59
2022/09/12 08:14:00;;;;;;;31.35;13.95;;;16.60;99.90;;;;;;5110742;28;20020;-59
2022/09/12 08:16:29;;;;;;;24.63;13.30;;;16.80;99.90;;;;;;5102318;28;20043;-59
2022/09/12 08:18:54;;;;;;;27.17;13.68;;;16.90;99.90;;;;;;5111154;28;20027;-60
2022/09/12 08:21:25;;;;;;;28.55;12.77;;;17.00;99.90;;;;;;5110697;28;20031;-59
2022/09/12 08:23:53;;;;;;;28.73;13.13;;;17.10;99.90;;;;;;5105702;28;20530;-61
2022/09/12 08:26:19;;;;;;;34.38;13.20;;;17.20;99.90;;;;;;5100380;28;20024;-59
2022/09/12 08:28:45;;;;;;;26.75;13.68;;;17.30;99.90;;;;;;5091968;28;20031;-60
2022/09/12 08:31:13;;;;;;;25.85;12.57;;;17.30;99.90;;;;;;5104134;28;20384;-60
2022/09/12 08:33:39;;;;;;;26.52;12.55;;;17.40;99.90;;;;;;5084318;28;20390;-60
2022/09/12 08:36:09;;;;;;;28.92;12.50;;;17.40;99.90;;;;;;5090209;28;20028;-59
2022/09/12 08:38:37;;;;;;;24.80;13.10;;;17.50;99.90;;;;;;5091264;28;20047;-59
2022/09/12 08:41:17;;;;;;;26.00;12.23;;;17.50;99.90;;;;;;5109626;28;20030;-59
2022/09/12 08:43:59;;;;;;;27.08;13.18;;;17.60;99.90;;;;;;5090047;28;20074;-61
2022/09/12 08:46:36;;;;;;;21.88;11.88;;;17.60;99.90;;;;;;5109232;28;20032;-60
2022/09/12 08:49:04;;;;;;;28.98;12.77;;;17.60;99.90;;;;;;5111115;28;20102;-61
2022/09/12 08:51:33;;;;;;;30.42;11.90;;;17.60;99.90;;;;;;5110619;28;20024;-61
2022/09/12 08:54:01;;;;;;;26.55;12.88;;;17.70;99.90;;;;;;5110285;28;20020;-61
2022/09/12 08:56:30;;;;;;;27.75;12.55;;;17.70;99.90;;;;;;5108881;28;20501;-58
2022/09/12 08:58:56;;;;;;;28.65;13.38;;;17.90;99.90;;;;;;5105062;28;20076;-60
2022/09/12 09:01:40;;;;;;;24.08;13.30;;;18.00;99.90;;;;;;5110785;28;20107;-59
2022/09/12 09:04:42;;;;;;;25.13;13.05;;;18.10;99.90;;;;;;5110119;28;20027;-59
2022/09/12 09:07:54;;;;;;;24.63;12.73;;;18.20;99.90;;;;;;5076943;28;20035;-59
2022/09/12 09:10:57;;;;;;;21.27;12.25;;;18.40;99.90;;;;;;5061557;28;20031;-61
2022/09/12 09:16:43;;;;;;;24.25;13.63;;;18.70;99.90;;;;;;5069067;28;20044;-56
2022/09/12 09:19:45;;;;;;;25.13;12.32;;;18.90;99.90;;;;;;5070035;28;20020;-56
2022/09/12 09:22:25;;;;;;;23.77;11.73;;;19.10;99.90;;;;;;5017306;28;20056;-53
2022/09/12 09:24:58;;;;;;;20.92;11.95;;;19.30;99.90;;;;;;5071225;28;20025;-53
2022/09/12 09:27:41;;;;;;;20.27;11.07;;;19.50;99.90;;;;;;5069037;28;20066;-53
2022/09/12 09:30:18;;;;;;;23.13;10.85;;;19.70;99.90;;;;;;5069319;28;20024;-53
2022/09/12 09:32:49;;;;;;;27.23;12.75;;;19.70;99.90;;;;;;5069604;28;20016;-55
2022/09/12 09:35:26;;;;;;;21.70;10.90;;;19.80;99.90;;;;;;5069638;28;20086;-56
2022/09/12 09:38:04;;;;;;;21.55;10.10;;;20.00;99.90;;;;;;5064377;28;20065;-54
2022/09/12 09:40:45;;;;;;;19.45;10.35;;;20.00;99.90;;;;;;5068934;28;20029;-54
2022/09/12 09:43:22;;;;;;;19.83;11.23;;;20.10;99.90;;;;;;5068710;28;20039;-55
2022/09/12 09:45:50;;;;;;;14.95;8.73;;;20.30;99.90;;;;;;5073458;28;20028;-55
2022/09/12 09:48:30;;;;;;;17.77;9.07;;;20.50;99.90;;;;;;5073609;28;20012;-54
2022/09/12 09:50:59;;;;;;;12.20;8.15;;;20.70;99.90;;;;;;5073950;28;20024;-57
2022/09/12 09:53:59;;;;;;;15.43;7.88;;;20.90;99.90;;;;;;5073272;28;20028;-54
2022/09/12 09:56:33;;;;;;;11.52;7.05;;;21.00;99.90;;;;;;5067954;28;20572;-57
2022/09/12 09:59:24;;;;;;;11.55;8.27;;;21.30;99.90;;;;;;5071233;28;20041;-57
2022/09/12 10:01:58;;;;;;;9.77;6.82;;;21.60;99.90;;;;;;5072127;28;20041;-57
2022/09/12 10:04:27;;;;;;;9.82;6.53;;;21.80;99.90;;;;;;5073712;28;20029;-57
2022/09/12 10:07:01;;;;;;;10.55;7.35;;;22.00;99.90;;;;;;5072396;28;20096;-55
2022/09/12 10:09:32;;;;;;;11.52;6.68;;;22.10;99.90;;;;;;5072410;28;20092;-58
2022/09/12 10:12:00;;;;;;;14.57;6.63;;;22.30;99.90;;;;;;5073243;28;20031;-55
2022/09/12 10:14:36;;;;;;;10.52;6.28;;;22.60;99.90;;;;;;5073005;28;20086;-57
2022/09/12 10:17:35;;;;;;;9.05;6.30;;;22.80;99.90;;;;;;5071643;28;20024;-57
2022/09/12 10:20:02;;;;;;;11.68;6.05;;;22.70;99.90;;;;;;5043422;28;20501;-56
2022/09/12 10:22:28;;;;;;;11.70;6.07;;;22.90;99.90;;;;;;5070146;28;20025;-55
2022/09/12 10:24:57;;;;;;;14.50;6.45;;;23.10;99.90;;;;;;5068099;28;20021;-54
2022/09/12 10:27:28;;;;;;;11.18;6.35;;;23.20;99.90;;;;;;5071057;28;20103;-56
2022/09/12 10:30:02;;;;;;;8.20;6.03;;;23.20;99.90;;;;;;5070141;28;20036;-55
2022/09/12 10:32:40;;;;;;;7.78;5.57;;;23.40;99.90;;;;;;5076250;28;20421;-57
2022/09/12 10:35:21;;;;;;;6.32;5.20;;;23.60;99.90;;;;;;5073678;28;20588;-53
2022/09/12 10:38:02;;;;;;;9.40;5.10;;;23.70;99.90;;;;;;5068087;28;20481;-57
2022/09/12 10:40:39;;;;;;;8.60;4.38;;;23.60;99.90;;;;;;5063277;28;20021;-56
2022/09/12 10:43:38;;;;;;;8.70;5.00;;;23.90;99.90;;;;;;5062397;28;20456;-56
2022/09/12 10:46:27;;;;;;;6.13;4.07;;;23.90;99.90;;;;;;5035064;28;20071;-56
2022/09/12 10:49:18;;;;;;;5.68;4.50;;;24.10;99.90;;;;;;5067033;28;20384;-56
2022/09/12 10:51:44;;;;;;;7.75;4.40;;;24.20;99.90;;;;;;5065164;28;20020;-56
2022/09/12 10:54:11;;;;;;;5.60;4.45;;;24.20;99.90;;;;;;5067086;28;20112;-54
2022/09/12 10:57:14;;;;;;;8.05;4.35;;;24.40;99.90;;;;;;5065694;28;20028;-57
2022/09/12 10:59:58;;;;;;;6.35;3.72;;;24.40;99.90;;;;;;5061772;28;20036;-57
2022/09/12 11:02:47;;;;;;;3.13;2.78;;;24.40;99.90;;;;;;5062597;28;20024;-54
2022/09/12 11:05:48;;;;;;;8.75;3.22;;;24.40;99.90;;;;;;5060696;28;20491;-53
2022/09/12 11:08:38;;;;;;;5.63;3.45;;;24.70;99.90;;;;;;5058076;28;20021;-55
2022/09/12 11:11:25;;;;;;;5.50;3.28;;;25.00;99.90;;;;;;5064173;28;20681;-53
2022/09/12 11:14:26;;;;;;;3.53;2.53;;;25.10;99.90;;;;;;5066691;28;20044;-54
2022/09/12 11:17:03;;;;;;;3.42;2.15;;;25.10;99.90;;;;;;5063508;28;20028;-55
2022/09/12 11:19:45;;;;;;;2.58;2.25;;;25.50;99.90;;;;;;5062142;28;20028;-53
2022/09/12 11:22:23;;;;;;;2.38;2.08;;;25.60;99.90;;;;;;5062482;28;20031;-56
2022/09/12 11:25:08;;;;;;;3.58;2.75;;;25.70;99.90;;;;;;5063760;28;20052;-57
2022/09/12 11:27:52;;;;;;;3.45;2.53;;;25.50;99.90;;;;;;5056770;28;20107;-53
2022/09/12 11:30:17;;;;;;;3.00;2.40;;;25.60;99.90;;;;;;5062010;28;20090;-55
2022/09/12 11:33:04;;;;;;;3.25;2.25;;;25.90;99.90;;;;;;5059934;28;20021;-58
2022/09/12 11:35:32;;;;;;;3.83;2.53;;;25.60;99.90;;;;;;5067657;28;20020;-56
2022/09/12 11:38:34;;;;;;;5.50;2.70;;;25.60;99.90;;;;;;5062590;28;20142;-58
2022/09/12 11:41:07;;;;;;;2.78;2.30;;;25.70;99.90;;;;;;5056239;28;20068;-56
2022/09/12 11:43:41;;;;;;;4.55;2.22;;;25.70;99.90;;;;;;5061938;28;20032;-55
2022/09/12 11:46:40;;;;;;;5.50;2.35;;;25.70;99.90;;;;;;5064054;28;20025;-56
2022/09/12 11:49:12;;;;;;;4.07;2.80;;;25.80;99.90;;;;;;5061300;28;20085;-52
2022/09/12 11:51:44;;;;;;;4.45;2.83;;;26.20;99.90;;;;;;5061763;28;20056;-54
2022/09/12 11:54:28;;;;;;;6.50;2.55;;;26.40;99.90;;;;;;5060147;28;20437;-58
2022/09/12 11:57:06;;;;;;;;;;;26.50;99.90;;;;;;5058488;28;20024;-54
2022/09/12 11:59:59;;;;;;;4.05;2.95;;;26.90;99.90;;;;;;5063922;28;19922;-53
2022/09/12 12:02:44;;;;;;;6.28;2.45;;;26.70;99.90;;;;;;5064032;28;20103;-55
2022/09/12 12:05:21;;;;;;;4.78;2.60;;;26.90;99.90;;;;;;5063459;28;20044;-53
2022/09/12 12:08:01;;;;;;;5.60;3.35;;;26.80;99.90;;;;;;5059972;28;20040;-56
2022/09/12 12:10:36;;;;;;;3.65;2.45;;;26.70;99.90;;;;;;5065808;28;20025;-54
2022/09/12 12:13:26;;;;;;;2.80;2.50;;;26.80;99.90;;;;;;5058868;28;20040;-58
2022/09/12 12:15:56;;;;;;;5.18;3.13;;;26.90;99.90;;;;;;5060041;28;20103;-58
2022/09/12 12:18:24;;;;;;;4.65;2.42;;;27.20;99.90;;;;;;5064827;28;20493;-58
2022/09/12 12:20:51;;;;;;;4.65;3.30;;;27.20;99.90;;;;;;5062159;28;20555;-59
2022/09/12 12:23:30;;;;;;;5.93;3.03;;;27.00;99.90;;;;;;5058438;28;20028;-59
2022/09/12 12:25:58;;;;;;;3.72;2.83;;;27.00;99.90;;;;;;5057323;28;20032;-56
2022/09/12 12:28:43;;;;;;;4.53;2.75;;;27.10;99.90;;;;;;5062046;28;20028;-57
2022/09/12 12:31:09;;;;;;;3.70;2.88;;;26.90;99.90;;;;;;5077613;28;20103;-57
2022/09/12 12:33:38;;;;;;;3.25;2.30;;;27.10;99.90;;;;;;5055032;28;20115;-57
2022/09/12 12:36:06;;;;;;;3.42;2.45;;;27.40;99.90;;;;;;5060939;28;20494;-57
2022/09/12 12:38:33;;;;;;;5.05;3.20;;;27.10;99.90;;;;;;5062021;28;20053;-56
2022/09/12 12:41:16;;;;;;;8.45;2.60;;;27.20;99.90;;;;;;5059454;28;20029;-59
2022/09/12 12:43:47;;;;;;;3.67;3.10;;;27.50;99.90;;;;;;5056874;28;21186;-57
2022/09/12 12:46:15;;;;;;;3.67;2.58;;;27.40;99.90;;;;;;5057570;28;20047;-56
2022/09/12 12:48:59;;;;;;;3.15;2.70;;;27.60;99.90;;;;;;5068970;28;20028;-58
2022/09/12 12:52:00;;;;;;;3.75;3.10;;;27.30;99.90;;;;;;5062329;28;20036;-57
2022/09/12 12:54:30;;;;;;;2.35;2.13;;;27.20;99.90;;;;;;5065686;28;20494;-58
2022/09/12 12:57:02;;;;;;;5.57;4.00;;;27.50;99.90;;;;;;5060156;28;20421;-55
2022/09/12 12:59:28;;;;;;;7.82;2.40;;;27.20;99.90;;;;;;5058633;28;20020;-57
2022/09/12 13:01:57;;;;;;;3.25;2.95;;;27.30;99.90;;;;;;5066183;28;20150;-58
2022/09/12 13:04:27;;;;;;;3.83;2.80;;;27.30;99.90;;;;;;5059123;28;20024;-58
2022/09/12 13:07:07;;;;;;;3.60;2.42;;;27.40;99.90;;;;;;5062741;28;20054;-56